Time;durP1;ratioP1;P1;durP2;ratioP2;P2;SDS_P1;SDS_P2;PMS_P1;PMS_P2;Temp;Humidity;BMP_temperature;BMP_pressure;BME280_temperature;BME280_humidity;BME280_pressure;Samples;Min_cycle;Max_cycle;Signal;HPM_P1;HPM_P2
2021/10/17 00:01:06;;;;;;;24.95;18.30;;;;;;;8.22;71.36;99036.16;5051134;28;20017;-51
2021/10/17 00:03:31;;;;;;;28.48;20.55;;;;;;;8.12;71.37;99034.59;5052315;28;20025;-51
2021/10/17 00:05:57;;;;;;;26.92;20.13;;;;;;;8.08;71.84;99030.72;5052327;28;20432;-51
2021/10/17 00:08:23;;;;;;;23.77;19.70;;;;;;;8.07;71.48;99029.09;5052318;28;20021;-52
2021/10/17 00:10:49;;;;;;;23.35;19.15;;;;;;;8.02;71.84;99025.38;5052236;28;20017;-51
2021/10/17 00:13:14;;;;;;;27.65;18.88;;;;;;;7.98;71.87;99024.91;5034654;28;20035;-52
2021/10/17 00:15:40;;;;;;;21.65;17.95;;;;;;;8.04;71.94;99020.78;5052020;28;20502;-51
2021/10/17 00:18:08;;;;;;;26.55;18.83;;;;;;;8.10;71.09;99027.91;5052199;28;20021;-52
2021/10/17 00:20:35;;;;;;;28.77;19.23;;;;;;;8.14;71.03;99024.78;5052379;28;20079;-52
2021/10/17 00:23:01;;;;;;;28.15;17.67;;;;;;;8.17;71.34;99026.25;5050746;28;20086;-50
2021/10/17 00:25:27;;;;;;;25.13;18.75;;;;;;;8.18;71.49;99027.84;5034120;28;20425;-51
2021/10/17 00:27:53;;;;;;;24.40;17.38;;;;;;;8.20;70.94;99024.06;5034063;28;20087;-51
2021/10/17 00:30:19;;;;;;;27.10;17.80;;;;;;;8.44;71.41;99030.09;5051930;28;20074;-51
2021/10/17 00:32:46;;;;;;;23.45;18.05;;;;;;;8.49;70.81;99024.34;5050592;28;20031;-51
2021/10/17 00:35:13;;;;;;;24.63;19.38;;;;;;;8.46;69.84;99025.50;5050605;28;20074;-51
2021/10/17 00:37:40;;;;;;;23.52;18.30;;;;;;;8.33;70.15;99033.94;5049722;28;20538;-51
2021/10/17 00:40:09;;;;;;;23.02;18.15;;;;;;;8.32;70.03;99032.31;5051803;28;20580;-50
2021/10/17 00:42:36;;;;;;;21.17;15.20;;;;;;;8.26;69.80;99034.81;5050370;28;20059;-50
2021/10/17 00:45:06;;;;;;;23.52;18.20;;;;;;;8.12;69.62;99037.22;5050386;28;20025;-51
2021/10/17 00:47:32;;;;;;;23.50;15.30;;;;;;;8.00;69.12;99028.97;5051732;28;20025;-51
2021/10/17 00:49:58;;;;;;;21.65;16.98;;;;;;;7.91;69.65;99029.22;5051488;28;20499;-51
2021/10/17 00:52:24;;;;;;;23.73;17.30;;;;;;;7.98;69.68;99024.91;5051596;28;20025;-51
2021/10/17 00:54:50;;;;;;;21.67;17.73;;;;;;;8.00;69.96;99026.34;5051650;28;20083;-50
2021/10/17 00:57:16;;;;;;;19.85;16.08;;;;;;;8.16;69.68;99028.03;5051641;28;20025;-51
2021/10/17 00:59:45;;;;;;;17.88;15.93;;;;;;;8.27;69.58;99026.81;5051620;28;20033;-51
2021/10/17 01:02:11;;;;;;;59.88;18.02;;;;;;;8.22;68.08;99036.97;5051526;28;20021;-50
2021/10/17 01:04:38;;;;;;;37.20;17.60;;;;;;;7.95;68.83;99026.06;5051419;28;20030;-51
2021/10/17 01:07:06;;;;;;;17.73;15.00;;;;;;;7.74;69.85;99026.69;5051512;28;20029;-51
2021/10/17 01:09:37;;;;;;;19.00;15.20;;;;;;;7.85;70.04;99027.28;5050191;28;20170;-50
2021/10/17 01:12:05;;;;;;;26.05;16.38;;;;;;;8.05;69.67;99030.25;5050253;28;20522;-51
2021/10/17 01:14:30;;;;;;;21.83;15.88;;;;;;;8.05;69.15;99031.06;5033560;28;20025;-51
2021/10/17 01:16:56;;;;;;;22.15;16.65;;;;;;;8.05;68.83;99025.84;5033538;28;20491;-50
2021/10/17 01:19:22;;;;;;;34.35;17.38;;;;;;;8.03;68.49;99024.38;5033479;28;20074;-50
2021/10/17 01:21:49;;;;;;;21.52;17.48;;;;;;;7.98;68.50;99033.56;5051368;28;20021;-50
2021/10/17 01:24:17;;;;;;;30.23;17.88;;;;;;;7.79;68.67;99026.19;5051299;28;20021;-51
2021/10/17 01:26:44;;;;;;;23.42;17.02;;;;;;;7.57;69.29;99039.06;5051220;28;20028;-50
2021/10/17 01:29:10;;;;;;;24.65;18.05;;;;;;;7.53;69.86;99029.13;5051354;28;20044;-51
2021/10/17 01:31:41;;;;;;;23.23;18.00;;;;;;;7.55;69.66;99014.09;5051254;28;20021;-51
2021/10/17 01:34:08;;;;;;;20.50;16.00;;;;;;;7.43;69.49;99023.31;5049926;28;20074;-50
2021/10/17 01:36:36;;;;;;;23.33;16.90;;;;;;;7.33;69.89;99026.13;5051236;28;20071;-51
2021/10/17 01:39:04;;;;;;;21.60;16.90;;;;;;;7.23;69.74;99030.75;5033295;28;20050;-51
2021/10/17 01:41:29;;;;;;;26.52;18.35;;;;;;;7.22;70.40;99026.50;5051183;28;20025;-50
2021/10/17 01:44:29;;;;;;;27.50;18.15;;;;;;;7.13;70.67;99028.34;5033203;28;20414;-51
2021/10/17 01:46:55;;;;;;;18.48;15.98;;;;;;;7.05;70.12;99018.75;5051026;28;20033;-50
2021/10/17 01:49:21;;;;;;;21.15;17.13;;;;;;;6.98;70.63;99016.00;5053142;28;20095;-50
2021/10/17 01:51:47;;;;;;;19.23;16.27;;;;;;;6.89;70.08;99010.97;5054889;28;20033;-50
2021/10/17 01:54:13;;;;;;;17.73;15.20;;;;;;;6.79;70.62;99004.16;5036911;28;20112;-50
2021/10/17 01:56:39;;;;;;;18.77;15.48;;;;;;;6.71;70.13;99000.75;5036874;28;20029;-50
2021/10/17 01:59:05;;;;;;;21.50;16.17;;;;;;;6.57;70.82;98997.84;5036865;28;20068;-51
2021/10/17 02:01:31;;;;;;;19.33;15.52;;;;;;;6.44;71.32;99001.94;5036666;28;20086;-51
2021/10/17 02:04:00;;;;;;;20.67;15.68;;;;;;;6.39;71.63;98992.03;5054637;28;20028;-51
2021/10/17 02:06:26;;;;;;;17.58;14.63;;;;;;;6.45;72.20;98995.78;5054594;28;20021;-50
2021/10/17 02:08:52;;;;;;;18.92;15.75;;;;;;;6.53;71.99;98993.16;5054648;28;20021;-51
2021/10/17 02:11:18;;;;;;;21.40;16.45;;;;;;;6.70;72.25;98991.31;5054486;28;20029;-50
2021/10/17 02:13:44;;;;;;;21.23;16.63;;;;;;;6.97;72.33;98985.66;5053190;28;20029;-52
2021/10/17 02:16:10;;;;;;;23.50;16.52;;;;;;;7.19;71.50;98998.94;5053090;28;20021;-51
2021/10/17 02:18:35;;;;;;;22.48;17.05;;;;;;;7.35;71.36;98995.44;5054361;28;20066;-51
2021/10/17 02:21:02;;;;;;;25.58;19.45;;;;;;;7.34;70.53;98993.81;5036617;28;20025;-51
2021/10/17 02:23:28;;;;;;;21.48;17.63;;;;;;;7.32;70.91;98987.94;5054250;28;20046;-51
2021/10/17 02:25:53;;;;;;;21.15;17.88;;;;;;;7.43;70.53;98986.75;5054284;28;20025;-51
2021/10/17 02:28:19;;;;;;;21.80;17.27;;;;;;;7.51;70.57;98981.50;5054222;28;20196;-50
2021/10/17 02:30:45;;;;;;;18.65;15.65;;;;;;;7.55;69.82;98975.72;5036236;28;20025;-51
2021/10/17 02:33:11;;;;;;;20.60;16.85;;;;;;;7.63;69.78;98989.75;5052897;28;20130;-51
2021/10/17 02:35:37;;;;;;;26.60;15.40;;;;;;;7.57;69.41;98980.78;5054093;28;20036;-51
2021/10/17 02:38:04;;;;;;;18.48;15.00;;;;;;;7.51;68.70;98978.88;5036085;28;20025;-51
2021/10/17 02:40:30;;;;;;;21.23;15.82;;;;;;;7.38;68.40;98980.25;5053965;28;20159;-51
2021/10/17 02:42:55;;;;;;;16.85;15.02;;;;;;;7.31;69.20;98978.50;5053893;28;22395;-50
2021/10/17 02:45:21;;;;;;;18.83;14.68;;;;;;;7.36;69.43;98974.41;5052582;28;20017;-52
2021/10/17 02:47:47;;;;;;;19.85;15.05;;;;;;;7.24;69.11;98974.94;5053683;28;20017;-51
2021/10/17 02:50:13;;;;;;;16.80;13.93;;;;;;;7.30;69.47;98985.50;5054112;28;20040;-51
2021/10/17 02:52:38;;;;;;;25.08;15.48;;;;;;;7.34;69.00;98985.97;5052487;28;20057;-50
2021/10/17 02:55:05;;;;;;;20.58;15.93;;;;;;;7.23;69.63;98984.56;5052359;28;20025;-51
2021/10/17 02:57:30;;;;;;;18.15;15.38;;;;;;;7.23;69.56;98989.00;5052401;28;20033;-51
2021/10/17 02:59:56;;;;;;;70.38;16.92;;;;;;;7.06;69.24;98990.84;5052744;28;20027;-51
2021/10/17 03:02:22;;;;;;;191.32;21.52;;;;;;;6.78;70.17;98994.72;5035632;28;20032;-51
2021/10/17 03:04:48;;;;;;;33.78;17.55;;;;;;;6.70;70.86;98986.91;5035563;28;20456;-51
2021/10/17 03:07:14;;;;;;;95.88;17.50;;;;;;;6.70;71.20;98997.34;5053541;28;20495;-51
2021/10/17 03:09:39;;;;;;;51.30;17.85;;;;;;;6.74;71.62;98992.59;5053437;28;20072;-50
2021/10/17 03:12:06;;;;;;;29.80;16.98;;;;;;;6.76;71.45;98990.63;5035558;28;20111;-52
2021/10/17 03:14:32;;;;;;;112.30;96.38;;;;;;;6.89;71.65;98983.09;5035365;28;20079;-51
2021/10/17 03:16:58;;;;;;;33.10;20.92;;;;;;;6.87;71.56;98985.06;5053267;28;20021;-51
2021/10/17 03:19:23;;;;;;;67.18;16.85;;;;;;;6.72;70.46;98981.50;5053264;28;20596;-50
2021/10/17 03:21:49;;;;;;;29.70;15.70;;;;;;;6.53;70.69;98983.53;5053189;28;20021;-51
2021/10/17 03:24:15;;;;;;;31.27;18.60;;;;;;;6.40;71.20;98989.25;5035166;28;20074;-50
2021/10/17 03:26:42;;;;;;;33.42;16.95;;;;;;;6.49;72.16;98984.84;5035077;28;20025;-51
2021/10/17 03:29:08;;;;;;;59.30;17.13;;;;;;;6.68;71.72;98988.88;5053116;28;20096;-50
2021/10/17 03:31:37;;;;;;;35.75;16.67;;;;;;;6.68;71.28;98988.03;5035089;28;20037;-50
2021/10/17 03:34:03;;;;;;;69.63;17.90;;;;;;;6.52;71.21;98992.34;5052945;28;20525;-51
2021/10/17 03:36:30;;;;;;;62.00;17.80;;;;;;;6.38;71.80;98995.63;5051637;28;20025;-51
2021/10/17 03:38:56;;;;;;;117.22;18.92;;;;;;;6.27;72.23;98998.56;5052951;28;20518;-51
2021/10/17 03:41:21;;;;;;;63.33;19.33;;;;;;;6.17;72.51;98999.53;5052829;28;20025;-50
2021/10/17 03:43:47;;;;;;;95.75;20.08;;;;;;;6.20;73.17;98994.00;5052783;28;20071;-51
2021/10/17 03:46:15;;;;;;;141.75;22.25;;;;;;;6.17;73.93;98996.13;5051496;28;20028;-50
2021/10/17 03:48:41;;;;;;;31.95;16.40;;;;;;;6.29;74.27;98996.59;5034460;28;20048;-51
2021/10/17 03:51:08;;;;;;;45.58;18.05;;;;;;;6.38;74.60;98995.63;5051368;28;20029;-51
2021/10/17 03:53:37;;;;;;;46.65;17.77;;;;;;;6.51;74.10;98992.50;5052562;28;20032;-51
2021/10/17 03:56:04;;;;;;;61.35;16.70;;;;;;;6.68;73.82;98990.66;5052560;28;20013;-51
2021/10/17 03:58:29;;;;;;;29.83;17.25;;;;;;;6.77;73.44;99000.91;5034615;28;20029;-50
2021/10/17 04:00:55;;;;;;;85.68;18.15;;;;;;;6.93;73.50;98996.63;5052458;28;20021;-50
2021/10/17 04:03:21;;;;;;;143.48;20.40;;;;;;;6.92;73.37;98994.97;5052378;28;20070;-50
2021/10/17 04:05:46;;;;;;;99.22;20.95;;;;;;;6.67;73.07;99000.28;5052361;28;20017;-50
2021/10/17 04:08:12;;;;;;;72.22;18.27;;;;;;;6.48;73.48;98998.88;5052369;28;20025;-50
2021/10/17 04:10:41;;;;;;;38.25;19.38;;;;;;;6.37;73.88;98996.59;5052265;28;20021;-51
2021/10/17 04:13:07;;;;;;;111.90;18.92;;;;;;;6.42;74.34;98990.88;5052159;28;20033;-50
2021/10/17 04:15:35;;;;;;;32.80;16.88;;;;;;;6.46;74.28;98995.63;5052188;28;20036;-51
2021/10/17 04:18:03;;;;;;;59.67;16.23;;;;;;;6.44;73.40;98994.13;5034829;28;20095;-51
2021/10/17 04:20:29;;;;;;;49.13;15.43;;;;;;;6.31;73.29;98999.88;5050789;28;20029;-51
2021/10/17 04:22:59;;;;;;;70.28;17.48;;;;;;;6.19;73.31;98991.56;5034138;28;20044;-51
2021/10/17 04:25:25;;;;;;;29.58;16.90;;;;;;;6.12;72.97;99001.03;5052000;28;20021;-50
2021/10/17 04:27:51;;;;;;;24.00;15.88;;;;;;;6.11;73.75;98989.78;5034092;28;20028;-50
2021/10/17 04:30:17;;;;;;;33.30;14.70;;;;;;;6.31;73.65;98997.25;5051922;28;20028;-50
2021/10/17 04:32:43;;;;;;;24.80;16.10;;;;;;;6.34;73.02;98994.34;5052002;28;20414;-50
2021/10/17 04:35:10;;;;;;;34.38;16.55;;;;;;;6.36;72.85;98997.59;5051921;28;20032;-50
2021/10/17 04:37:36;;;;;;;28.10;15.50;;;;;;;6.54;73.25;98998.19;5051845;28;20049;-51
2021/10/17 04:40:05;;;;;;;53.45;17.80;;;;;;;6.67;72.21;98991.66;5051799;28;20017;-51
2021/10/17 04:42:31;;;;;;;80.22;18.23;;;;;;;6.51;71.60;98995.91;5051790;28;20017;-50
2021/10/17 04:44:58;;;;;;;58.58;17.55;;;;;;;6.33;72.22;99001.31;5033758;28;20063;-50
2021/10/17 04:47:24;;;;;;;43.78;16.23;;;;;;;6.27;72.65;98998.56;5034020;28;20101;-50
2021/10/17 04:49:50;;;;;;;29.42;15.00;;;;;;;6.18;72.17;99000.38;5033632;28;20507;-50
2021/10/17 04:52:15;;;;;;;145.85;17.55;;;;;;;6.10;72.85;99009.00;5051684;28;20403;-50
2021/10/17 04:54:41;;;;;;;23.48;16.85;;;;;;;5.98;72.91;99013.72;5050355;28;20025;-50
2021/10/17 04:57:07;;;;;;;59.03;16.63;;;;;;;6.04;73.53;99014.03;5051498;28;20104;-50
2021/10/17 04:59:34;;;;;;;27.33;15.60;;;;;;;6.20;73.61;99009.66;5051638;28;20059;-51
2021/10/17 05:02:00;;;;;;;47.08;16.00;;;;;;;6.31;73.24;99012.91;5051549;28;20159;-51
2021/10/17 05:04:25;;;;;;;34.50;14.90;;;;;;;6.35;72.59;99012.41;5050151;28;20124;-50
2021/10/17 05:06:51;;;;;;;42.30;15.35;;;;;;;6.43;73.29;99014.19;5051563;28;20025;-50
2021/10/17 05:09:17;;;;;;;64.32;16.75;;;;;;;6.66;73.34;99011.72;5051511;28;20033;-51
2021/10/17 05:11:42;;;;;;;49.67;16.58;;;;;;;6.82;72.63;99016.03;5033592;28;20072;-50
2021/10/17 05:14:08;;;;;;;45.40;16.05;;;;;;;6.84;72.27;99015.88;5051446;28;20033;-51
2021/10/17 05:16:34;;;;;;;22.52;14.80;;;;;;;6.96;72.26;99014.53;5033527;28;20025;-50
2021/10/17 05:19:01;;;;;;;53.67;14.85;;;;;;;7.09;71.36;99004.38;5050143;28;20032;-51
2021/10/17 05:21:28;;;;;;;136.88;17.48;;;;;;;7.17;71.31;99004.34;5051381;28;20536;-50
2021/10/17 05:23:56;;;;;;;195.57;19.40;;;;;;;7.02;71.72;98998.19;5052869;28;20025;-50
2021/10/17 05:26:22;;;;;;;31.70;15.80;;;;;;;7.02;71.90;99008.63;5055377;28;20100;-50
2021/10/17 05:28:48;;;;;;;37.75;16.25;;;;;;;7.30;72.22;99008.19;5037600;28;20478;-51
2021/10/17 05:31:13;;;;;;;47.92;15.77;;;;;;;7.60;71.44;98999.50;5055290;28;20037;-50
2021/10/17 05:33:39;;;;;;;21.80;14.80;;;;;;;7.71;70.73;99006.16;5053982;28;20086;-51
2021/10/17 05:36:06;;;;;;;57.53;16.45;;;;;;;7.71;70.16;99003.56;5037268;28;20024;-50
2021/10/17 05:38:32;;;;;;;24.83;16.08;;;;;;;7.70;70.21;99003.72;5055157;28;20039;-51
2021/10/17 05:40:58;;;;;;;44.60;18.17;;;;;;;7.70;70.07;99001.91;5055159;28;20521;-51
2021/10/17 05:43:24;;;;;;;38.72;17.15;;;;;;;7.65;69.48;99001.63;5055014;28;20029;-51
2021/10/17 05:45:50;;;;;;;63.20;18.90;;;;;;;7.43;69.65;99008.47;5054994;28;20029;-51
2021/10/17 05:48:16;;;;;;;45.05;19.52;;;;;;;7.24;69.40;99014.09;5054726;28;20048;-51
2021/10/17 05:50:41;;;;;;;28.20;16.98;;;;;;;7.15;70.94;99015.94;5036988;28;20071;-51
2021/10/17 05:53:07;;;;;;;27.23;17.83;;;;;;;7.32;70.87;99009.63;5054916;28;20052;-51
2021/10/17 05:55:33;;;;;;;32.75;16.92;;;;;;;7.58;71.26;99017.16;5053522;28;20021;-51
2021/10/17 05:57:59;;;;;;;41.45;19.00;;;;;;;7.83;70.06;99014.41;5036893;28;20032;-51
2021/10/17 06:00:25;;;;;;;48.63;16.80;;;;;;;7.97;70.54;99018.88;5036781;28;20021;-50
2021/10/17 06:02:51;;;;;;;28.52;18.23;;;;;;;8.22;71.43;99020.47;5053335;28;20119;-50
2021/10/17 06:05:16;;;;;;;39.63;20.92;;;;;;;8.32;71.23;99026.28;5054612;28;20025;-51
2021/10/17 06:07:42;;;;;;;50.30;20.33;;;;;;;8.02;70.10;99020.94;5054659;28;20029;-51
2021/10/17 06:10:12;;;;;;;38.05;21.48;;;;;;;7.65;70.89;99026.94;5054487;28;20021;-51
2021/10/17 06:12:39;;;;;;;54.20;20.02;;;;;;;7.54;71.87;99038.56;5054548;28;20112;-51
2021/10/17 06:15:06;;;;;;;28.48;17.60;;;;;;;7.63;71.85;99037.56;5054373;28;20025;-50
2021/10/17 06:17:33;;;;;;;37.38;20.70;;;;;;;7.73;71.13;99048.59;5054446;28;20029;-51
2021/10/17 06:19:59;;;;;;;35.00;20.50;;;;;;;7.83;70.23;99050.16;5036489;28;20063;-51
2021/10/17 06:22:25;;;;;;;91.35;19.25;;;;;;;7.89;70.48;99052.09;5054341;28;20112;-50
2021/10/17 06:24:51;;;;;;;60.47;19.15;;;;;;;7.91;70.35;99055.34;5054282;28;20116;-51
2021/10/17 06:27:16;;;;;;;35.70;17.95;;;;;;;7.93;70.56;99062.03;5054223;28;20032;-51
2021/10/17 06:29:42;;;;;;;39.00;17.40;;;;;;;8.08;70.84;99064.69;5054167;28;20044;-51
2021/10/17 06:32:08;;;;;;;38.20;17.63;;;;;;;8.20;70.41;99065.09;5052864;28;20082;-51
2021/10/17 06:34:34;;;;;;;33.30;17.75;;;;;;;8.28;69.70;99062.41;5035400;28;20029;-51
2021/10/17 06:37:00;;;;;;;76.30;17.45;;;;;;;8.25;69.44;99067.16;5053503;28;20589;-51
2021/10/17 06:39:26;;;;;;;40.80;19.92;;;;;;;8.14;69.82;99074.44;5054047;28;20017;-51
2021/10/17 06:41:52;;;;;;;23.90;17.20;;;;;;;8.20;71.45;99073.75;5036063;28;20025;-51
2021/10/17 06:44:20;;;;;;;31.23;18.80;;;;;;;8.29;70.28;99078.91;5053840;28;20079;-52
2021/10/17 06:46:50;;;;;;;32.45;17.33;;;;;;;8.33;70.39;99075.78;5052585;28;20507;-50
2021/10/17 06:49:17;;;;;;;155.98;19.88;;;;;;;8.48;69.79;99085.50;5053591;28;20052;-51
2021/10/17 06:51:44;;;;;;;34.58;18.67;;;;;;;8.53;69.95;99078.75;5053813;28;20112;-51
2021/10/17 06:54:10;;;;;;;84.55;66.57;;;;;;;8.72;70.37;99081.84;5035914;28;20029;-51
2021/10/17 06:56:35;;;;;;;64.30;45.95;;;;;;;8.91;69.69;99088.34;5053701;28;20021;-51
2021/10/17 06:59:02;;;;;;;93.90;75.38;;;;;;;9.11;69.08;99083.41;5053657;28;20495;-51
2021/10/17 07:01:27;;;;;;;28.02;19.88;;;;;;;9.32;68.55;99093.97;5052309;28;20112;-52
2021/10/17 07:03:53;;;;;;;40.17;18.65;;;;;;;9.36;67.38;99092.59;5053480;28;20548;-51
2021/10/17 07:06:19;;;;;;;38.10;19.13;;;;;;;9.35;66.98;99090.16;5035611;28;20100;-51
2021/10/17 07:08:45;;;;;;;30.95;20.38;;;;;;;9.42;67.21;99087.63;5052240;28;20035;-51
2021/10/17 07:11:10;;;;;;;28.15;17.92;;;;;;;9.59;66.56;99094.28;5053427;28;20406;-51
2021/10/17 07:13:36;;;;;;;30.05;18.65;;;;;;;9.69;66.24;99086.94;5053444;28;20028;-51
2021/10/17 07:16:02;;;;;;;84.90;18.20;;;;;;;9.73;65.61;99096.06;5053379;28;20457;-51
2021/10/17 07:18:28;;;;;;;31.65;19.27;;;;;;;9.75;65.12;99095.88;5035408;28;20505;-51
2021/10/17 07:20:54;;;;;;;25.02;17.85;;;;;;;9.81;65.31;99095.13;5053354;28;20021;-50
2021/10/17 07:23:20;;;;;;;50.70;19.10;;;;;;;10.08;65.07;99095.41;5053169;28;20078;-51
2021/10/17 07:25:46;;;;;;;38.08;19.35;;;;;;;10.27;64.03;99104.47;5051851;28;20505;-52
2021/10/17 07:28:12;;;;;;;31.58;20.10;;;;;;;10.30;63.88;99102.34;5035475;28;20110;-51
2021/10/17 07:30:38;;;;;;;28.02;18.42;;;;;;;10.36;63.98;99098.94;5053083;28;20044;-51
2021/10/17 07:33:04;;;;;;;39.08;16.85;;;;;;;10.55;64.15;99104.56;5053051;28;20056;-50
2021/10/17 07:35:30;;;;;;;62.50;18.80;;;;;;;10.71;63.74;99100.84;5052986;28;20028;-50
2021/10/17 07:37:57;;;;;;;28.35;17.63;;;;;;;10.79;63.36;99104.13;5051691;28;20025;-51
2021/10/17 07:40:24;;;;;;;28.25;17.23;;;;;;;10.68;63.71;99104.63;5052865;28;20017;-50
2021/10/17 07:42:50;;;;;;;31.00;16.30;;;;;;;10.69;64.10;99114.16;5052768;28;20108;-51
2021/10/17 07:45:16;;;;;;;32.58;16.55;;;;;;;10.78;63.78;99102.53;5034771;28;20064;-50
2021/10/17 07:47:42;;;;;;;32.55;15.43;;;;;;;10.86;63.47;99100.72;5052492;28;20056;-51
2021/10/17 07:50:09;;;;;;;24.52;15.30;;;;;;;10.84;63.89;99103.53;5051211;28;20094;-50
2021/10/17 07:52:36;;;;;;;28.85;14.77;;;;;;;10.90;64.11;99100.16;5035034;28;20512;-51
2021/10/17 07:55:06;;;;;;;22.92;14.30;;;;;;;11.07;64.42;99097.25;5052634;28;20025;-50
2021/10/17 07:57:54;;;;;;;23.63;14.35;;;;;;;11.33;63.10;99102.63;5051332;28;20090;-50
2021/10/17 08:00:22;;;;;;;27.23;16.08;;;;;;;11.57;63.00;99106.59;5052504;28;20107;-51
2021/10/17 08:02:48;;;;;;;26.15;16.00;;;;;;;11.79;62.56;99096.75;5052515;28;20074;-50
2021/10/17 08:05:14;;;;;;;24.38;14.52;;;;;;;12.02;61.63;99100.88;5052307;28;20021;-51
2021/10/17 08:07:40;;;;;;;27.88;14.80;;;;;;;12.24;61.67;99098.09;5052399;28;20035;-51
2021/10/17 08:10:11;;;;;;;22.42;14.48;;;;;;;12.74;61.48;99103.78;5051076;28;20029;-51
2021/10/17 08:12:37;;;;;;;18.60;14.00;;;;;;;13.35;59.63;99100.03;5052387;28;20044;-51
2021/10/17 08:15:04;;;;;;;24.83;14.50;;;;;;;13.75;57.66;99100.66;5034291;28;20040;-50
2021/10/17 08:17:30;;;;;;;25.13;15.20;;;;;;;13.79;57.49;99096.59;5050887;28;20021;-51
2021/10/17 08:19:56;;;;;;;25.20;16.02;;;;;;;13.82;57.14;99105.91;5052187;28;20531;-50
2021/10/17 08:22:23;;;;;;;24.55;15.63;;;;;;;13.64;56.95;99101.31;5052123;28;20052;-51
2021/10/17 08:24:51;;;;;;;26.52;16.65;;;;;;;13.46;57.65;99106.47;5052031;28;20045;-51
2021/10/17 08:27:17;;;;;;;26.40;16.45;;;;;;;13.70;58.05;99111.06;5034083;28;20028;-50
2021/10/17 08:29:43;;;;;;;24.77;15.13;;;;;;;13.92;57.14;99113.38;5052076;28;20487;-51
2021/10/17 08:32:09;;;;;;;31.77;17.60;;;;;;;13.87;56.90;99110.56;5034040;28;20021;-51
2021/10/17 08:34:35;;;;;;;23.25;15.27;;;;;;;13.99;57.09;99120.22;5051984;28;20029;-51
2021/10/17 08:37:01;;;;;;;25.10;17.80;;;;;;;14.19;56.71;99114.84;5034082;28;20048;-50
2021/10/17 08:39:27;;;;;;;24.67;17.40;;;;;;;14.18;56.57;99113.22;5051903;28;20092;-51
2021/10/17 08:41:53;;;;;;;26.45;18.58;;;;;;;14.07;56.49;99115.72;5051840;28;20013;-50
2021/10/17 08:44:19;;;;;;;44.83;18.58;;;;;;;14.00;56.39;99115.75;5051706;28;20036;-51
2021/10/17 08:46:46;;;;;;;27.08;17.83;;;;;;;13.81;57.00;99121.97;5051811;28;20017;-50
2021/10/17 08:49:13;;;;;;;23.80;16.27;;;;;;;13.74;57.23;99117.53;5051447;28;20128;-50
2021/10/17 08:51:39;;;;;;;25.00;16.35;;;;;;;13.61;57.70;99122.06;5051598;28;20039;-51
2021/10/17 08:54:07;;;;;;;37.70;15.95;;;;;;;13.51;57.56;99114.56;5033771;28;20040;-51
2021/10/17 08:56:33;;;;;;;26.88;18.40;;;;;;;13.21;58.28;99117.66;5050529;28;20028;-50
2021/10/17 08:58:59;;;;;;;22.90;15.52;;;;;;;13.19;59.00;99122.34;5049607;28;20029;-50
2021/10/17 09:01:33;;;;;;;24.85;16.17;;;;;;;13.47;58.63;99116.00;5033648;28;20025;-50
2021/10/17 09:04:02;;;;;;;21.58;16.40;;;;;;;13.79;58.21;99122.16;5051485;28;20124;-52
2021/10/17 09:06:33;;;;;;;19.55;15.90;;;;;;;13.92;57.43;99124.75;5033997;28;20025;-50
2021/10/17 09:09:11;;;;;;;28.98;15.30;;;;;;;14.05;57.42;99129.13;5051619;28;20025;-50
2021/10/17 09:11:40;;;;;;;20.02;16.23;;;;;;;14.13;56.78;99126.25;5051506;28;20021;-52
2021/10/17 09:14:08;;;;;;;22.58;15.30;;;;;;;14.17;56.82;99122.16;5051525;28;20385;-51
2021/10/17 09:16:40;;;;;;;24.95;16.30;;;;;;;14.29;56.89;99119.66;5050169;28;20230;-50
2021/10/17 09:19:29;;;;;;;21.15;14.57;;;;;;;14.57;56.41;99121.09;5051503;28;20025;-51
2021/10/17 09:22:03;;;;;;;19.17;14.98;;;;;;;14.77;55.71;99115.66;5033575;28;20036;-52
2021/10/17 09:24:34;;;;;;;19.73;14.57;;;;;;;15.05;55.51;99123.13;5050031;28;20033;-52
2021/10/17 09:27:18;;;;;;;20.15;15.30;;;;;;;15.27;54.89;99115.56;5033428;28;20375;-51
2021/10/17 09:29:52;;;;;;;20.48;13.82;;;;;;;15.44;54.58;99114.97;5033532;28;20033;-51
2021/10/17 09:32:25;;;;;;;19.45;15.95;;;;;;;15.70;53.95;99114.66;5051339;28;20047;-51
2021/10/17 09:35:05;;;;;;;20.10;14.38;;;;;;;15.94;53.64;99114.78;5051410;28;20033;-51
2021/10/17 09:37:40;;;;;;;16.73;13.50;;;;;;;16.13;53.39;99121.63;5051343;28;20029;-51
2021/10/17 09:40:21;;;;;;;21.10;14.82;;;;;;;16.43;52.80;99112.03;5051316;28;20029;-52
2021/10/17 09:43:09;;;;;;;20.90;15.15;;;;;;;16.53;52.86;99113.09;5051260;28;20035;-51
2021/10/17 09:45:36;;;;;;;16.77;14.23;;;;;;;16.64;52.04;99114.16;5051193;28;20060;-52
2021/10/17 09:48:03;;;;;;;19.50;14.10;;;;;;;16.85;51.62;99117.31;5050529;28;20033;-51
2021/10/17 09:50:30;;;;;;;23.77;15.20;;;;;;;17.31;51.00;99118.31;5051183;28;20115;-51
2021/10/17 09:53:00;;;;;;;32.47;15.77;;;;;;;17.73;49.91;99118.88;5051187;28;20079;-51
2021/10/17 09:55:27;;;;;;;17.38;15.13;;;;;;;17.81;49.61;99109.75;5051091;28;20439;-52
2021/10/17 09:57:53;;;;;;;16.80;14.43;;;;;;;17.81;49.22;99117.72;5051098;28;20104;-51
2021/10/17 10:00:19;;;;;;;18.63;14.32;;;;;;;18.07;48.72;99105.72;5051064;28;20022;-52
2021/10/17 10:02:46;;;;;;;22.20;17.08;;;;;;;18.54;48.04;99109.94;5051063;28;20032;-49
2021/10/17 10:05:14;;;;;;;17.00;15.13;;;;;;;18.98;47.38;99112.78;5050999;28;20104;-50
2021/10/17 10:07:42;;;;;;;19.67;15.80;;;;;;;19.20;46.71;99107.47;5051065;28;20071;-49
2021/10/17 10:10:09;;;;;;;19.38;16.90;;;;;;;19.43;46.18;99105.63;5052761;28;20036;-51
2021/10/17 10:12:38;;;;;;;24.05;19.33;;;;;;;19.42;45.75;99106.66;5053251;28;20047;-49
2021/10/17 10:15:07;;;;;;;23.80;20.45;;;;;;;19.52;45.86;99104.16;5054459;28;20053;-50
2021/10/17 10:17:37;;;;;;;22.17;19.92;;;;;;;19.84;45.41;99093.63;5053170;28;20033;-49
2021/10/17 10:20:03;;;;;;;20.63;18.42;;;;;;;20.30;44.67;99093.22;5054506;28;20025;-49
2021/10/17 10:22:31;;;;;;;17.25;15.45;;;;;;;20.80;43.81;99094.69;5054316;28;20029;-50
2021/10/17 10:24:58;;;;;;;16.63;14.82;;;;;;;21.77;42.17;99093.53;5054285;28;20013;-51
2021/10/17 10:27:26;;;;;;;17.42;15.68;;;;;;;22.78;40.11;99094.66;5054258;28;20029;-50
2021/10/17 10:30:18;;;;;;;18.48;15.05;;;;;;;23.30;39.71;99088.13;5036306;28;20116;-50
2021/10/17 10:33:03;;;;;;;14.32;12.80;;;;;;;23.97;38.43;99084.31;5036573;28;20043;-50
2021/10/17 10:35:29;;;;;;;15.02;13.57;;;;;;;24.72;37.01;99075.91;5053992;28;20023;-50
2021/10/17 10:37:55;;;;;;;15.32;13.60;;;;;;;25.19;35.78;99077.00;5054144;28;20024;-50
2021/10/17 10:40:21;;;;;;;13.93;12.60;;;;;;;25.37;35.37;99070.09;5054034;28;20017;-50
2021/10/17 10:42:50;;;;;;;15.15;13.75;;;;;;;25.64;34.93;99066.78;5036072;28;20061;-50
2021/10/17 10:45:28;;;;;;;15.35;13.38;;;;;;;26.05;33.94;99066.19;5053845;28;20021;-51
2021/10/17 10:48:13;;;;;;;14.65;13.02;;;;;;;26.38;33.75;99063.53;5053742;28;20075;-50
2021/10/17 10:50:40;;;;;;;;;;;;;;;26.42;35.04;99059.16;5054407;28;20032;-50
2021/10/17 10:53:10;;;;;;;13.88;12.68;;;;;;;26.33;33.61;99054.75;5053764;28;19978;-51
2021/10/17 10:55:45;;;;;;;15.82;13.15;;;;;;;26.77;32.78;99054.22;5052452;28;20032;-51
2021/10/17 10:58:23;;;;;;;13.50;12.27;;;;;;;27.10;32.56;99049.56;5052372;28;20029;-50
2021/10/17 11:00:49;;;;;;;12.95;11.75;;;;;;;27.32;32.28;99049.94;5053699;28;20115;-50
2021/10/17 11:03:17;;;;;;;14.88;11.00;;;;;;;27.60;31.23;99037.97;5035592;28;20095;-50
2021/10/17 11:06:04;;;;;;;13.13;11.57;;;;;;;27.30;32.26;99050.25;5053628;28;20104;-49
2021/10/17 11:08:31;;;;;;;13.85;10.98;;;;;;;26.84;32.57;99038.50;5053559;28;20029;-50
2021/10/17 11:10:57;;;;;;;12.65;11.05;;;;;;;26.67;32.55;99038.28;5053412;28;20017;-50
2021/10/17 11:13:37;;;;;;;13.10;11.68;;;;;;;26.39;33.10;99032.03;5035562;28;20033;-50
2021/10/17 11:16:05;;;;;;;12.40;11.23;;;;;;;26.68;33.06;99034.47;5053450;28;20021;-50
2021/10/17 11:18:41;;;;;;;13.20;11.25;;;;;;;26.68;32.70;99035.28;5053378;28;20102;-50
2021/10/17 11:21:08;;;;;;;11.35;10.25;;;;;;;26.33;33.24;99036.69;5052531;28;20025;-50
2021/10/17 11:23:39;;;;;;;12.23;10.80;;;;;;;26.03;33.65;99030.72;5053101;28;20159;-50